createdAt,value
2022-11-16T00:01:10.614Z,40.60
2022-11-16T00:03:41.509Z,40.28
2022-11-16T00:06:12.174Z,36.00
2022-11-16T00:08:41.793Z,37.67
2022-11-16T00:11:12.509Z,34.35
2022-11-16T00:13:41.141Z,39.78
2022-11-16T00:16:13.155Z,34.97
2022-11-16T00:18:40.517Z,31.00
2022-11-16T00:21:08.647Z,38.97
2022-11-16T00:23:38.339Z,34.85
2022-11-16T00:26:06.414Z,34.55
2022-11-16T00:28:35.915Z,37.00
2022-11-16T00:31:06.218Z,35.88
2022-11-16T00:33:36.314Z,36.00
2022-11-16T00:36:05.585Z,32.75
2022-11-16T00:38:33.713Z,34.05
2022-11-16T00:41:01.079Z,34.50
2022-11-16T00:43:28.422Z,36.40
2022-11-16T00:45:59.210Z,32.67
2022-11-16T00:48:26.778Z,35.95
2022-11-16T00:50:54.471Z,38.00
2022-11-16T00:53:22.820Z,36.95
2022-11-16T00:55:50.577Z,37.60
2022-11-16T00:58:20.327Z,37.37
2022-11-16T01:00:52.848Z,35.28
2022-11-16T01:03:21.510Z,34.38
2022-11-16T01:05:48.925Z,36.97
2022-11-16T01:08:16.315Z,36.38
2022-11-16T01:10:43.665Z,36.97
2022-11-16T01:13:13.298Z,34.22
2022-11-16T01:15:49.725Z,33.55
2022-11-16T01:18:17.098Z,37.55
2022-11-16T01:20:45.764Z,36.90
2022-11-16T01:23:13.183Z,37.90
2022-11-16T01:25:40.443Z,35.40
2022-11-16T01:28:08.009Z,33.35
2022-11-16T01:30:48.310Z,36.10
2022-11-16T01:33:15.646Z,36.38
2022-11-16T01:35:45.096Z,38.43
2022-11-16T01:38:15.498Z,38.67
2022-11-16T01:40:44.500Z,33.67
2022-11-16T01:43:17.860Z,34.33
2022-11-16T01:45:46.316Z,37.75
2022-11-16T01:48:19.151Z,35.53
2022-11-16T01:50:49.306Z,31.83
2022-11-16T01:53:19.638Z,35.38
2022-11-16T01:55:51.926Z,33.72
2022-11-16T01:58:30.051Z,34.22
2022-11-16T02:01:04.073Z,30.20
2022-11-16T02:03:40.268Z,31.95
2022-11-16T02:06:24.768Z,33.30
2022-11-16T02:09:29.537Z,31.60
2022-11-16T02:12:19.338Z,32.88
2022-11-16T02:15:03.729Z,31.77
2022-11-16T02:17:40.451Z,37.83
2022-11-16T02:20:43.723Z,37.15
2022-11-16T02:23:47.485Z,36.65
2022-11-16T02:26:30.740Z,33.20
2022-11-16T02:29:18.358Z,34.20
2022-11-16T02:31:51.603Z,31.02
2022-11-16T02:34:21.176Z,37.85
2022-11-16T02:36:53.290Z,39.30
2022-11-16T02:39:26.035Z,34.25
2022-11-16T02:41:55.029Z,32.07
2022-11-16T02:44:28.158Z,34.72
2022-11-16T02:46:59.188Z,33.72
2022-11-16T02:49:29.388Z,34.45
2022-11-16T02:51:58.859Z,34.55
2022-11-16T02:54:26.754Z,28.93
2022-11-16T02:57:17.918Z,36.17
2022-11-16T02:59:50.520Z,33.08
2022-11-16T03:02:24.972Z,38.20
2022-11-16T03:04:57.458Z,37.95
2022-11-16T03:07:32.099Z,36.73
2022-11-16T03:10:00.424Z,33.90
2022-11-16T03:12:31.466Z,37.85
2022-11-16T03:15:04.891Z,32.90
2022-11-16T03:17:37.973Z,32.67
2022-11-16T03:20:10.405Z,34.73
2022-11-16T03:22:42.074Z,39.05
2022-11-16T03:25:11.829Z,37.03
2022-11-16T03:27:44.906Z,36.25
2022-11-16T03:30:22.323Z,41.08
2022-11-16T03:32:56.434Z,40.30
2022-11-16T03:35:29.015Z,40.60
2022-11-16T03:37:59.814Z,41.92
2022-11-16T03:40:32.294Z,42.33
2022-11-16T03:43:01.582Z,39.50
2022-11-16T03:45:31.190Z,40.53
2022-11-16T03:47:59.863Z,44.40
2022-11-16T03:50:27.895Z,43.70
2022-11-16T03:52:55.245Z,43.65
2022-11-16T03:55:22.860Z,44.42
2022-11-16T03:57:50.312Z,43.93
2022-11-16T04:00:19.941Z,43.05
2022-11-16T04:02:48.599Z,44.78
2022-11-16T04:05:38.665Z,38.72
2022-11-16T04:08:24.371Z,46.05
2022-11-16T04:11:10.745Z,48.77
2022-11-16T04:13:57.077Z,47.20
2022-11-16T04:16:44.995Z,49.95
2022-11-16T04:19:32.147Z,50.00
2022-11-16T04:22:21.649Z,52.42
2022-11-16T04:24:54.274Z,47.77
2022-11-16T04:27:44.919Z,43.63
2022-11-16T04:30:13.952Z,43.95
2022-11-16T04:32:59.724Z,47.47
2022-11-16T04:35:47.470Z,46.85
2022-11-16T04:38:15.362Z,49.77
2022-11-16T04:40:42.604Z,50.28
2022-11-16T04:43:12.447Z,48.22
2022-11-16T04:46:01.321Z,53.42
2022-11-16T04:48:36.518Z,47.47
2022-11-16T04:51:06.306Z,56.23
2022-11-16T04:53:34.892Z,48.38
2022-11-16T04:56:11.345Z,50.28
2022-11-16T04:58:38.792Z,52.47
2022-11-16T05:01:06.266Z,45.22
2022-11-16T05:03:33.797Z,49.23
2022-11-16T05:06:01.894Z,49.03
2022-11-16T05:08:31.422Z,49.88
2022-11-16T05:11:00.129Z,56.67
2022-11-16T05:13:27.841Z,49.25
2022-11-16T05:15:55.125Z,57.10
2022-11-16T05:18:23.155Z,56.45
2022-11-16T05:21:02.646Z,52.55
2022-11-16T05:23:55.620Z,60.38
2022-11-16T05:26:25.486Z,60.50
2022-11-16T05:28:54.414Z,56.27
2022-11-16T05:31:21.657Z,56.90
2022-11-16T05:33:49.272Z,63.33
2022-11-16T05:36:17.231Z,63.58
2022-11-16T05:38:46.109Z,58.55
2022-11-16T05:41:13.396Z,64.50
2022-11-16T05:43:40.740Z,64.22
2022-11-16T05:46:14.396Z,63.75
2022-11-16T05:48:41.683Z,60.95
2022-11-16T05:51:08.998Z,68.00
2022-11-16T05:53:36.283Z,58.50
2022-11-16T05:56:06.708Z,58.15
2022-11-16T05:58:37.320Z,62.35
2022-11-16T06:01:06.254Z,65.88
2022-11-16T06:03:33.810Z,60.65
2022-11-16T06:06:01.620Z,58.70
2022-11-16T06:08:30.979Z,48.63
2022-11-16T06:11:02.181Z,63.15
2022-11-16T06:13:31.838Z,67.43
2022-11-16T06:16:02.755Z,64.88
2022-11-16T06:18:32.505Z,63.87
2022-11-16T06:20:59.930Z,65.95
2022-11-16T06:23:27.183Z,66.95
2022-11-16T06:25:55.712Z,71.55
2022-11-16T06:28:26.273Z,55.95
2022-11-16T06:30:56.458Z,59.70
2022-11-16T06:33:29.656Z,67.93
2022-11-16T06:36:01.337Z,68.95
2022-11-16T06:38:28.810Z,66.65
2022-11-16T06:40:58.546Z,65.85
2022-11-16T06:43:28.339Z,68.33
2022-11-16T06:45:58.422Z,71.00
2022-11-16T06:48:26.130Z,63.60
2022-11-16T06:50:53.803Z,63.80
2022-11-16T06:53:28.772Z,73.13
2022-11-16T06:56:01.357Z,65.77
2022-11-16T06:58:29.290Z,62.22
2022-11-16T07:00:58.613Z,70.65
2022-11-16T07:03:25.925Z,66.18
2022-11-16T07:05:53.273Z,63.60
2022-11-16T07:08:21.686Z,61.67
2022-11-16T07:10:49.399Z,65.07
2022-11-16T07:13:16.725Z,61.85
2022-11-16T07:15:43.959Z,66.57
2022-11-16T07:18:12.469Z,55.95
2022-11-16T07:20:39.860Z,66.03
2022-11-16T07:23:11.365Z,70.18
2022-11-16T07:25:41.319Z,63.45
2022-11-16T07:28:09.220Z,58.60
2022-11-16T07:30:36.698Z,63.47
2022-11-16T07:33:08.065Z,68.53
2022-11-16T07:35:55.437Z,62.60
2022-11-16T07:38:22.673Z,68.55
2022-11-16T07:40:49.857Z,64.78
2022-11-16T07:43:19.784Z,66.30
2022-11-16T07:49:01.619Z,63.67
2022-11-16T07:51:48.803Z,63.83
2022-11-16T07:54:37.010Z,62.42
2022-11-16T07:57:04.631Z,58.97
2022-11-16T07:59:31.981Z,65.10
2022-11-16T08:01:59.943Z,64.13
2022-11-16T08:04:28.110Z,64.72
2022-11-16T08:06:57.172Z,60.72
2022-11-16T08:09:24.449Z,64.20
2022-11-16T08:11:52.104Z,61.30
2022-11-16T08:14:20.107Z,63.17
2022-11-16T08:16:49.569Z,57.28
2022-11-16T08:19:18.051Z,60.53
2022-11-16T08:21:45.733Z,60.40
2022-11-16T08:24:15.822Z,60.30
2022-11-16T08:26:44.603Z,55.08
2022-11-16T08:29:15.139Z,58.38
2022-11-16T08:31:47.440Z,55.70
2022-11-16T08:34:18.480Z,59.45
2022-11-16T08:36:49.615Z,59.63
2022-11-16T08:39:19.731Z,58.60
2022-11-16T08:41:46.936Z,53.50
2022-11-16T08:44:15.675Z,55.35
2022-11-16T08:46:46.211Z,61.90
2022-11-16T08:49:20.646Z,54.60
2022-11-16T08:51:48.165Z,57.63
2022-11-16T08:54:15.360Z,48.47
2022-11-16T08:56:45.343Z,50.42
2022-11-16T08:59:13.565Z,47.05
2022-11-16T09:01:46.362Z,45.43
2022-11-16T09:04:13.653Z,52.50
2022-11-16T09:06:40.846Z,50.08
2022-11-16T09:09:08.045Z,52.20
2022-11-16T09:11:35.313Z,50.03
2022-11-16T09:14:03.846Z,43.77
2022-11-16T09:16:31.299Z,49.25
2022-11-16T09:18:58.469Z,47.28
2022-11-16T09:21:27.504Z,45.10
2022-11-16T09:23:57.008Z,45.08
2022-11-16T09:26:25.356Z,43.80
2022-11-16T09:28:57.950Z,34.10
2022-11-16T09:31:27.849Z,35.92
2022-11-16T09:33:58.145Z,35.13
2022-11-16T09:36:25.579Z,30.45
2022-11-16T09:39:25.847Z,32.57
2022-11-16T09:42:02.404Z,29.23
2022-11-16T09:44:46.899Z,27.15
2022-11-16T09:47:21.398Z,27.48
2022-11-16T09:49:52.460Z,22.23
2022-11-16T09:52:26.861Z,20.37
2022-11-16T09:54:58.034Z,21.38
2022-11-16T09:57:29.229Z,25.65
2022-11-16T10:00:02.154Z,25.90
2022-11-16T10:02:45.783Z,24.23
2022-11-16T10:05:20.478Z,22.13
2022-11-16T10:07:52.234Z,23.52
2022-11-16T10:10:28.590Z,24.77
2022-11-16T10:13:05.181Z,22.60
2022-11-16T10:15:41.866Z,31.38
2022-11-16T10:18:24.248Z,27.20
2022-11-16T10:21:05.835Z,25.90
2022-11-16T10:23:46.650Z,28.15
2022-11-16T10:26:22.965Z,26.17
2022-11-16T10:29:05.062Z,25.13
2022-11-16T10:31:51.358Z,29.67
2022-11-16T10:34:22.578Z,28.17
2022-11-16T10:36:49.820Z,26.83
2022-11-16T10:39:19.084Z,21.77
2022-11-16T10:41:48.792Z,23.75
2022-11-16T10:44:25.575Z,24.37
2022-11-16T10:47:00.119Z,26.27
2022-11-16T10:49:37.346Z,30.98
2022-11-16T10:52:04.807Z,28.27
2022-11-16T10:54:31.962Z,31.90
2022-11-16T10:57:04.456Z,29.87
2022-11-16T10:59:41.770Z,29.50
2022-11-16T11:02:31.390Z,29.30
2022-11-16T11:05:05.678Z,32.15
2022-11-16T11:07:35.570Z,28.05
2022-11-16T11:10:03.470Z,32.97
2022-11-16T11:12:39.926Z,28.95
2022-11-16T11:15:26.242Z,30.02
2022-11-16T11:18:11.042Z,30.17
2022-11-16T11:20:44.861Z,31.40
2022-11-16T11:23:15.310Z,32.03
2022-11-16T11:25:50.789Z,23.50
2022-11-16T11:28:22.825Z,28.35
2022-11-16T11:30:58.553Z,26.65
2022-11-16T11:33:28.767Z,29.77
2022-11-16T11:36:04.899Z,27.23
2022-11-16T11:38:33.428Z,29.52
2022-11-16T11:41:02.278Z,29.35
2022-11-16T11:43:29.736Z,33.17
2022-11-16T11:46:06.023Z,29.08
2022-11-16T11:48:48.231Z,30.17
2022-11-16T11:51:20.851Z,25.55
2022-11-16T11:53:55.336Z,30.85
2022-11-16T11:56:23.345Z,31.63
2022-11-16T11:58:51.628Z,32.97
2022-11-16T12:01:56.951Z,28.93
2022-11-16T12:04:54.281Z,30.75
2022-11-16T12:07:39.425Z,31.20
2022-11-16T12:10:16.302Z,31.13
2022-11-16T12:12:55.406Z,33.72
2022-11-16T12:15:37.846Z,32.97
2022-11-16T12:18:20.654Z,33.63
2022-11-16T12:20:57.109Z,33.00
2022-11-16T12:24:03.848Z,27.38
2022-11-16T12:26:43.399Z,31.50
2022-11-16T12:29:23.851Z,32.63
2022-11-16T12:32:17.204Z,34.25
2022-11-16T12:35:00.130Z,28.88
2022-11-16T12:37:35.386Z,32.70
2022-11-16T12:40:23.628Z,30.50
2022-11-16T12:42:58.413Z,31.73
2022-11-16T12:45:41.979Z,30.02
2022-11-16T12:48:25.614Z,32.97
2022-11-16T12:50:59.280Z,32.80
2022-11-16T12:53:50.826Z,31.70
2022-11-16T12:56:26.723Z,27.70
2022-11-16T12:59:13.275Z,28.55
2022-11-16T13:01:45.064Z,31.10
2022-11-16T13:04:18.499Z,28.50
2022-11-16T13:06:52.420Z,27.90
2022-11-16T13:09:23.331Z,30.73
2022-11-16T13:11:55.795Z,31.83
2022-11-16T13:14:28.180Z,27.88
2022-11-16T13:16:57.366Z,30.80
2022-11-16T13:19:24.885Z,26.88
2022-11-16T13:22:02.704Z,29.17
2022-11-16T13:24:47.289Z,27.98
2022-11-16T13:27:28.445Z,27.38
2022-11-16T13:30:00.963Z,24.92
2022-11-16T13:32:41.838Z,29.85
2022-11-16T13:35:15.051Z,25.43
2022-11-16T13:37:46.653Z,25.92
2022-11-16T13:40:25.914Z,27.58
2022-11-16T13:43:13.748Z,26.48
2022-11-16T13:45:43.576Z,25.13
2022-11-16T13:48:18.423Z,23.30
2022-11-16T13:50:51.778Z,22.67
2022-11-16T13:54:32.685Z,24.08
2022-11-16T13:56:13.368Z,27.33
2022-11-16T13:58:46.909Z,23.48
2022-11-16T14:01:14.968Z,23.33
2022-11-16T14:03:42.889Z,23.35
2022-11-16T14:06:49.834Z,21.40
2022-11-16T14:09:42.050Z,22.35
2022-11-16T14:12:55.062Z,22.00
2022-11-16T14:15:26.686Z,20.07
2022-11-16T14:18:00.055Z,21.30
2022-11-16T14:20:41.050Z,24.45
2022-11-16T14:23:22.300Z,20.63
2022-11-16T14:25:55.382Z,22.30
2022-11-16T14:28:38.037Z,22.27
2022-11-16T14:31:15.355Z,22.08
2022-11-16T14:33:43.146Z,23.25
2022-11-16T14:36:11.176Z,18.80
2022-11-16T14:38:40.146Z,24.08
2022-11-16T14:41:18.068Z,21.63
2022-11-16T14:43:49.303Z,22.00
2022-11-16T14:46:22.660Z,21.65
2022-11-16T14:48:50.086Z,22.25
2022-11-16T14:51:21.835Z,22.55
2022-11-16T14:53:52.528Z,25.00
2022-11-16T14:56:20.134Z,20.15
2022-11-16T14:58:52.292Z,22.25
2022-11-16T15:01:23.969Z,20.55
2022-11-16T15:03:55.661Z,24.13
2022-11-16T15:06:24.852Z,23.70
2022-11-16T15:08:55.703Z,20.23
2022-11-16T15:11:46.926Z,17.58
2022-11-16T15:14:19.770Z,22.13
2022-11-16T15:16:53.291Z,18.27
2022-11-16T15:19:21.313Z,21.77
2022-11-16T15:21:53.326Z,18.85
2022-11-16T15:24:31.109Z,20.60
2022-11-16T15:27:10.281Z,18.08
2022-11-16T15:29:37.784Z,19.30
2022-11-16T15:32:07.399Z,18.17
2022-11-16T15:34:34.824Z,20.48
2022-11-16T15:37:02.020Z,16.10
2022-11-16T15:39:34.169Z,16.17
2022-11-16T15:42:03.959Z,19.98
2022-11-16T15:44:33.012Z,17.63
2022-11-16T15:47:02.221Z,17.88
2022-11-16T15:49:33.442Z,16.25
2022-11-16T15:52:01.237Z,18.17
2022-11-16T15:54:51.267Z,18.20
2022-11-16T15:57:19.542Z,17.23
2022-11-16T15:59:49.348Z,17.38
2022-11-16T16:02:18.964Z,17.10
2022-11-16T16:04:47.539Z,17.48
2022-11-16T16:07:36.256Z,15.23
2022-11-16T16:10:13.874Z,15.77
2022-11-16T16:12:47.905Z,16.30
2022-11-16T16:15:23.843Z,16.30
2022-11-16T16:17:52.868Z,15.77
2022-11-16T16:20:23.834Z,15.38
2022-11-16T16:22:51.706Z,17.00
2022-11-16T16:25:30.050Z,15.52
2022-11-16T16:27:58.100Z,15.95
2022-11-16T16:30:25.840Z,16.33
2022-11-16T16:32:53.328Z,18.05
2022-11-16T16:35:23.669Z,18.50
2022-11-16T16:37:55.621Z,18.40
2022-11-16T16:40:23.074Z,16.35
2022-11-16T16:42:50.909Z,16.95
2022-11-16T16:45:21.052Z,18.77
2022-11-16T16:47:48.246Z,16.07
2022-11-16T16:50:16.315Z,17.60
2022-11-16T16:52:45.591Z,15.48
2022-11-16T16:55:12.904Z,15.82
2022-11-16T16:57:40.261Z,14.40
2022-11-16T17:00:09.440Z,13.53
2022-11-16T17:02:36.863Z,14.25
2022-11-16T17:05:04.376Z,19.08
2022-11-16T17:07:31.699Z,17.38
2022-11-16T17:10:00.332Z,14.75
2022-11-16T17:12:27.839Z,17.87
2022-11-16T17:14:55.150Z,16.65
2022-11-16T17:17:26.064Z,13.27
2022-11-16T17:19:53.264Z,18.20
2022-11-16T17:22:20.800Z,17.27
2022-11-16T17:24:48.079Z,16.87
2022-11-16T17:27:16.602Z,17.10
2022-11-16T17:29:43.903Z,18.58
2022-11-16T17:32:11.099Z,16.38
2022-11-16T17:34:41.274Z,18.35
2022-11-16T17:37:08.558Z,15.87
2022-11-16T17:39:35.767Z,19.88
2022-11-16T17:42:03.096Z,15.75
2022-11-16T17:44:32.030Z,17.25
2022-11-16T17:46:59.214Z,16.98
2022-11-16T17:49:26.424Z,14.73
2022-11-16T17:51:53.735Z,12.52
2022-11-16T17:54:20.923Z,14.35
2022-11-16T17:56:48.489Z,14.55
2022-11-16T17:59:15.703Z,12.98
2022-11-16T18:01:44.383Z,15.03
2022-11-16T18:04:11.666Z,14.27
2022-11-16T18:06:39.904Z,14.07
2022-11-16T18:09:07.082Z,16.42
2022-11-16T18:11:34.820Z,15.35
2022-11-16T18:14:03.811Z,14.23
2022-11-16T18:16:32.776Z,15.10
2022-11-16T18:19:03.045Z,12.25
2022-11-16T18:21:30.922Z,12.70
2022-11-16T18:23:59.391Z,11.27
2022-11-16T18:26:26.701Z,12.33
2022-11-16T18:28:54.093Z,13.43
2022-11-16T18:31:22.683Z,15.32
2022-11-16T18:33:50.627Z,13.25
2022-11-16T18:36:20.455Z,10.80
2022-11-16T18:38:47.929Z,12.03
2022-11-16T18:41:19.538Z,12.88
2022-11-16T18:43:51.811Z,11.20
2022-11-16T18:46:19.485Z,10.63
2022-11-16T18:48:47.079Z,12.40
2022-11-16T18:51:15.631Z,8.70
2022-11-16T18:53:44.590Z,10.95
2022-11-16T18:56:11.907Z,10.50
2022-11-16T18:58:55.126Z,10.82
2022-11-16T19:01:25.487Z,9.73
2022-11-16T19:03:54.309Z,11.87
2022-11-16T19:06:22.233Z,11.15
2022-11-16T19:08:59.040Z,11.23
2022-11-16T19:11:27.540Z,11.05
2022-11-16T19:13:57.134Z,10.75
2022-11-16T19:16:24.520Z,9.77
2022-11-16T19:18:52.215Z,8.85
2022-11-16T19:21:19.844Z,9.30
2022-11-16T19:23:49.057Z,9.38
2022-11-16T19:26:19.158Z,11.23
2022-11-16T19:28:47.722Z,9.83
2022-11-16T19:31:17.297Z,9.73
2022-11-16T19:33:45.488Z,10.65
2022-11-16T19:36:14.538Z,10.90
2022-11-16T19:38:42.521Z,9.70
2022-11-16T19:41:11.405Z,10.27
2022-11-16T19:43:40.599Z,8.45
2022-11-16T19:46:09.825Z,8.57
2022-11-16T19:48:38.170Z,10.00
2022-11-16T19:51:06.764Z,10.57
2022-11-16T19:53:34.715Z,12.97
2022-11-16T19:56:02.284Z,9.35
2022-11-16T19:58:29.617Z,13.15
2022-11-16T20:01:02.066Z,9.07
2022-11-16T20:03:30.250Z,9.95
2022-11-16T20:06:08.226Z,9.77
2022-11-16T20:08:35.658Z,8.32
2022-11-16T20:11:10.411Z,9.80
2022-11-16T20:13:38.456Z,10.35
2022-11-16T20:16:09.541Z,8.63
2022-11-16T20:18:36.910Z,8.57
2022-11-16T20:21:06.677Z,9.10
2022-11-16T20:23:34.859Z,11.63
2022-11-16T20:26:05.524Z,10.82
2022-11-16T20:28:36.695Z,10.15
2022-11-16T20:31:07.268Z,9.67
2022-11-16T20:33:36.185Z,9.00
2022-11-16T20:36:06.182Z,9.00
2022-11-16T20:38:33.943Z,10.23
2022-11-16T20:41:08.349Z,10.45
2022-11-16T20:43:36.241Z,9.53
2022-11-16T20:46:03.918Z,9.45
2022-11-16T20:48:31.173Z,10.45
2022-11-16T20:50:59.719Z,13.68
2022-11-16T20:53:27.025Z,10.15
2022-11-16T20:55:54.219Z,10.80
2022-11-16T20:58:23.075Z,10.90
2022-11-16T21:00:51.149Z,10.90
2022-11-16T21:03:18.415Z,10.15
2022-11-16T21:05:51.079Z,10.45
2022-11-16T21:08:19.666Z,10.67
2022-11-16T21:10:48.282Z,9.90
2022-11-16T21:13:36.124Z,9.77
2022-11-16T21:16:05.815Z,11.65
2022-11-16T21:18:33.652Z,10.05
2022-11-16T21:21:01.865Z,9.10
2022-11-16T21:23:32.470Z,10.07
2022-11-16T21:26:03.776Z,10.73
2022-11-16T21:28:31.148Z,11.55
2022-11-16T21:30:59.256Z,11.73
2022-11-16T21:33:26.881Z,10.10
2022-11-16T21:35:54.747Z,10.15
2022-11-16T21:38:23.835Z,8.80
2022-11-16T21:40:52.432Z,10.05
2022-11-16T21:43:19.938Z,11.25
2022-11-16T21:45:48.341Z,10.77
2022-11-16T21:48:15.580Z,10.15
2022-11-16T21:50:43.377Z,10.20
2022-11-16T21:53:10.680Z,11.88
2022-11-16T21:55:37.863Z,11.60
2022-11-16T21:58:06.442Z,12.10
2022-11-16T22:00:33.679Z,9.98
2022-11-16T22:03:00.876Z,10.38
2022-11-16T22:05:46.858Z,10.88
2022-11-16T22:08:14.185Z,9.68
2022-11-16T22:10:41.450Z,9.17
2022-11-16T22:13:09.937Z,9.40
2022-11-16T22:15:37.112Z,8.93
2022-11-16T22:18:04.710Z,10.73
2022-11-16T22:20:31.921Z,10.63
2022-11-16T22:22:59.089Z,8.70
2022-11-16T22:25:26.418Z,9.43
2022-11-16T22:28:19.105Z,11.05
2022-11-16T22:30:43.379Z,9.88
2022-11-16T22:33:11.371Z,9.93
2022-11-16T22:35:38.658Z,8.70
2022-11-16T22:38:06.255Z,10.07
2022-11-16T22:40:33.477Z,12.93
2022-11-16T22:43:00.706Z,8.57
2022-11-16T22:45:27.962Z,10.70
2022-11-16T22:47:56.553Z,9.47
2022-11-16T22:50:24.072Z,9.63
2022-11-16T22:52:51.255Z,9.90
2022-11-16T22:55:18.457Z,10.32
2022-11-16T22:57:45.636Z,9.75
2022-11-16T23:00:13.850Z,9.80
2022-11-16T23:02:41.142Z,10.13
2022-11-16T23:05:09.902Z,9.18
2022-11-16T23:07:37.141Z,9.55
2022-11-16T23:10:05.310Z,11.05
2022-11-16T23:12:51.277Z,15.27
2022-11-16T23:15:37.343Z,11.88
2022-11-16T23:18:04.881Z,11.50
2022-11-16T23:20:53.177Z,11.25
2022-11-16T23:23:39.292Z,11.48
2022-11-16T23:26:32.125Z,11.20
2022-11-16T23:29:00.348Z,13.13
2022-11-16T23:31:27.528Z,12.60
2022-11-16T23:33:54.742Z,11.30
2022-11-16T23:36:23.261Z,13.30
2022-11-16T23:38:50.432Z,11.80
2022-11-16T23:41:36.186Z,10.27
2022-11-16T23:44:03.745Z,11.13
2022-11-16T23:46:32.625Z,12.07
2022-11-16T23:49:00.737Z,9.95
2022-11-16T23:51:29.276Z,12.77
2022-11-16T23:53:56.704Z,11.52
2022-11-16T23:56:24.236Z,11.00
2022-11-16T23:58:55.785Z,12.00
